sensor_id;sensor_type;location;lat;lon;timestamp;P1;durP1;ratioP1;P2;durP2;ratioP2
1204;SDS011;592;48.764;9.174;2023-07-02T00:01:19;6.20;;;3.10;;
1204;SDS011;592;48.764;9.174;2023-07-02T00:03:46;4.73;;;2.87;;
1204;SDS011;592;48.764;9.174;2023-07-02T00:06:12;5.53;;;2.90;;
1204;SDS011;592;48.764;9.174;2023-07-02T00:08:39;4.40;;;2.60;;
1204;SDS011;592;48.764;9.174;2023-07-02T00:11:06;5.47;;;3.40;;
1204;SDS011;592;48.764;9.174;2023-07-02T00:13:38;5.10;;;2.90;;
1204;SDS011;592;48.764;9.174;2023-07-02T00:16:05;4.80;;;2.80;;
1204;SDS011;592;48.764;9.174;2023-07-02T00:18:32;5.13;;;3.13;;
1204;SDS011;592;48.764;9.174;2023-07-02T00:20:59;5.60;;;3.00;;
1204;SDS011;592;48.764;9.174;2023-07-02T00:23:27;4.60;;;2.70;;
1204;SDS011;592;48.764;9.174;2023-07-02T00:25:54;4.77;;;3.00;;
1204;SDS011;592;48.764;9.174;2023-07-02T00:28:21;4.80;;;2.77;;
1204;SDS011;592;48.764;9.174;2023-07-02T00:30:49;6.50;;;3.30;;
1204;SDS011;592;48.764;9.174;2023-07-02T00:33:16;4.97;;;2.77;;
1204;SDS011;592;48.764;9.174;2023-07-02T00:35:42;4.20;;;2.50;;
1204;SDS011;592;48.764;9.174;2023-07-02T00:38:09;6.50;;;2.90;;
1204;SDS011;592;48.764;9.174;2023-07-02T00:40:36;5.20;;;2.90;;
1204;SDS011;592;48.764;9.174;2023-07-02T00:43:03;4.90;;;2.70;;
1204;SDS011;592;48.764;9.174;2023-07-02T00:45:29;5.43;;;3.00;;
1204;SDS011;592;48.764;9.174;2023-07-02T00:47:57;5.30;;;2.37;;
1204;SDS011;592;48.764;9.174;2023-07-02T00:50:24;5.07;;;3.10;;
1204;SDS011;592;48.764;9.174;2023-07-02T00:52:52;11.27;;;3.03;;
1204;SDS011;592;48.764;9.174;2023-07-02T00:55:20;4.20;;;2.63;;
1204;SDS011;592;48.764;9.174;2023-07-02T00:57:47;3.73;;;2.27;;
1204;SDS011;592;48.764;9.174;2023-07-02T01:00:13;4.50;;;2.80;;
1204;SDS011;592;48.764;9.174;2023-07-02T01:02:41;4.43;;;2.83;;
1204;SDS011;592;48.764;9.174;2023-07-02T01:05:10;4.43;;;2.63;;
1204;SDS011;592;48.764;9.174;2023-07-02T01:07:40;4.70;;;2.50;;
1204;SDS011;592;48.764;9.174;2023-07-02T01:10:07;5.77;;;2.90;;
1204;SDS011;592;48.764;9.174;2023-07-02T01:12:34;5.10;;;3.07;;
1204;SDS011;592;48.764;9.174;2023-07-02T01:15:02;4.27;;;2.40;;
1204;SDS011;592;48.764;9.174;2023-07-02T01:17:31;4.30;;;2.67;;
1204;SDS011;592;48.764;9.174;2023-07-02T01:20:06;5.07;;;2.77;;
1204;SDS011;592;48.764;9.174;2023-07-02T01:22:35;4.70;;;2.73;;
1204;SDS011;592;48.764;9.174;2023-07-02T01:25:02;5.00;;;2.53;;
1204;SDS011;592;48.764;9.174;2023-07-02T01:27:30;4.83;;;2.70;;
1204;SDS011;592;48.764;9.174;2023-07-02T01:29:57;6.90;;;2.97;;
1204;SDS011;592;48.764;9.174;2023-07-02T01:32:24;6.97;;;3.10;;
1204;SDS011;592;48.764;9.174;2023-07-02T01:34:51;4.63;;;2.73;;
1204;SDS011;592;48.764;9.174;2023-07-02T01:37:19;4.70;;;2.90;;
1204;SDS011;592;48.764;9.174;2023-07-02T01:39:46;4.20;;;2.50;;
1204;SDS011;592;48.764;9.174;2023-07-02T01:42:14;6.43;;;3.10;;
1204;SDS011;592;48.764;9.174;2023-07-02T01:44:41;4.40;;;2.60;;
1204;SDS011;592;48.764;9.174;2023-07-02T01:47:09;4.43;;;2.50;;
1204;SDS011;592;48.764;9.174;2023-07-02T01:49:36;4.90;;;2.23;;
1204;SDS011;592;48.764;9.174;2023-07-02T01:52:04;6.40;;;3.50;;
1204;SDS011;592;48.764;9.174;2023-07-02T01:54:33;5.83;;;2.73;;
1204;SDS011;592;48.764;9.174;2023-07-02T01:57:02;4.50;;;2.40;;
1204;SDS011;592;48.764;9.174;2023-07-02T01:59:29;5.20;;;3.03;;
1204;SDS011;592;48.764;9.174;2023-07-02T02:01:56;5.43;;;2.87;;
1204;SDS011;592;48.764;9.174;2023-07-02T02:04:23;5.43;;;2.80;;
1204;SDS011;592;48.764;9.174;2023-07-02T02:06:49;4.03;;;2.70;;
1204;SDS011;592;48.764;9.174;2023-07-02T02:09:17;4.60;;;2.50;;
1204;SDS011;592;48.764;9.174;2023-07-02T02:11:46;4.30;;;2.50;;
1204;SDS011;592;48.764;9.174;2023-07-02T02:14:14;5.07;;;3.07;;
1204;SDS011;592;48.764;9.174;2023-07-02T02:16:41;4.23;;;2.30;;
1204;SDS011;592;48.764;9.174;2023-07-02T02:19:10;4.63;;;2.77;;
1204;SDS011;592;48.764;9.174;2023-07-02T02:21:37;5.40;;;2.53;;
1204;SDS011;592;48.764;9.174;2023-07-02T02:24:05;5.20;;;2.90;;
1204;SDS011;592;48.764;9.174;2023-07-02T02:26:32;5.37;;;2.90;;
1204;SDS011;592;48.764;9.174;2023-07-02T02:29:00;3.57;;;2.30;;
1204;SDS011;592;48.764;9.174;2023-07-02T02:31:27;5.27;;;2.70;;
1204;SDS011;592;48.764;9.174;2023-07-02T02:33:54;4.80;;;2.70;;
1204;SDS011;592;48.764;9.174;2023-07-02T02:36:21;5.17;;;2.60;;
1204;SDS011;592;48.764;9.174;2023-07-02T02:38:48;5.33;;;3.20;;
1204;SDS011;592;48.764;9.174;2023-07-02T02:41:14;3.87;;;2.47;;
1204;SDS011;592;48.764;9.174;2023-07-02T02:43:41;4.80;;;2.77;;
1204;SDS011;592;48.764;9.174;2023-07-02T02:46:09;5.50;;;3.00;;
1204;SDS011;592;48.764;9.174;2023-07-02T02:48:37;4.80;;;2.87;;
1204;SDS011;592;48.764;9.174;2023-07-02T02:51:03;5.23;;;2.80;;
1204;SDS011;592;48.764;9.174;2023-07-02T02:53:30;7.50;;;3.00;;
1204;SDS011;592;48.764;9.174;2023-07-02T02:55:57;5.33;;;2.93;;
1204;SDS011;592;48.764;9.174;2023-07-02T02:58:23;4.50;;;2.90;;
1204;SDS011;592;48.764;9.174;2023-07-02T03:00:52;4.27;;;2.50;;
1204;SDS011;592;48.764;9.174;2023-07-02T03:03:21;4.73;;;2.90;;
1204;SDS011;592;48.764;9.174;2023-07-02T03:05:49;4.80;;;2.93;;
1204;SDS011;592;48.764;9.174;2023-07-02T03:08:16;5.70;;;2.50;;
1204;SDS011;592;48.764;9.174;2023-07-02T03:10:43;5.10;;;2.77;;
1204;SDS011;592;48.764;9.174;2023-07-02T03:13:10;4.10;;;2.40;;
1204;SDS011;592;48.764;9.174;2023-07-02T03:15:36;5.23;;;2.50;;
1204;SDS011;592;48.764;9.174;2023-07-02T03:18:03;5.33;;;3.13;;
1204;SDS011;592;48.764;9.174;2023-07-02T03:20:32;6.80;;;3.50;;
1204;SDS011;592;48.764;9.174;2023-07-02T03:22:59;5.60;;;2.77;;
1204;SDS011;592;48.764;9.174;2023-07-02T03:25:26;5.97;;;3.17;;
1204;SDS011;592;48.764;9.174;2023-07-02T03:27:52;4.47;;;2.67;;
1204;SDS011;592;48.764;9.174;2023-07-02T03:30:19;3.43;;;2.30;;
1204;SDS011;592;48.764;9.174;2023-07-02T03:32:46;4.90;;;3.13;;
1204;SDS011;592;48.764;9.174;2023-07-02T03:35:13;6.90;;;3.20;;
1204;SDS011;592;48.764;9.174;2023-07-02T03:37:41;5.20;;;3.07;;
1204;SDS011;592;48.764;9.174;2023-07-02T03:40:09;6.37;;;3.03;;
1204;SDS011;592;48.764;9.174;2023-07-02T03:42:35;5.47;;;2.83;;
1204;SDS011;592;48.764;9.174;2023-07-02T03:45:02;5.83;;;3.10;;
1204;SDS011;592;48.764;9.174;2023-07-02T03:47:29;5.20;;;3.13;;
1204;SDS011;592;48.764;9.174;2023-07-02T03:49:56;4.63;;;3.20;;
1204;SDS011;592;48.764;9.174;2023-07-02T03:52:23;5.40;;;3.50;;
1204;SDS011;592;48.764;9.174;2023-07-02T03:54:51;6.10;;;2.73;;
1204;SDS011;592;48.764;9.174;2023-07-02T03:57:17;5.57;;;3.00;;
1204;SDS011;592;48.764;9.174;2023-07-02T03:59:44;5.30;;;3.43;;
1204;SDS011;592;48.764;9.174;2023-07-02T04:02:11;6.43;;;3.37;;
1204;SDS011;592;48.764;9.174;2023-07-02T04:04:37;6.30;;;3.90;;
1204;SDS011;592;48.764;9.174;2023-07-02T04:07:04;5.00;;;2.70;;
1204;SDS011;592;48.764;9.174;2023-07-02T04:09:31;5.83;;;2.70;;
1204;SDS011;592;48.764;9.174;2023-07-02T04:11:59;8.10;;;3.30;;
1204;SDS011;592;48.764;9.174;2023-07-02T04:14:26;6.43;;;3.00;;
1204;SDS011;592;48.764;9.174;2023-07-02T04:16:53;7.10;;;3.33;;
1204;SDS011;592;48.764;9.174;2023-07-02T04:19:20;5.90;;;3.20;;
1204;SDS011;592;48.764;9.174;2023-07-02T04:21:46;5.33;;;3.07;;
1204;SDS011;592;48.764;9.174;2023-07-02T04:24:13;5.77;;;3.30;;
1204;SDS011;592;48.764;9.174;2023-07-02T04:26:40;7.80;;;3.90;;
1204;SDS011;592;48.764;9.174;2023-07-02T04:29:09;5.70;;;3.60;;
1204;SDS011;592;48.764;9.174;2023-07-02T04:31:36;7.13;;;3.60;;
1204;SDS011;592;48.764;9.174;2023-07-02T04:34:03;6.20;;;3.50;;
1204;SDS011;592;48.764;9.174;2023-07-02T04:36:30;5.80;;;3.07;;
1204;SDS011;592;48.764;9.174;2023-07-02T04:38:57;5.90;;;3.47;;
1204;SDS011;592;48.764;9.174;2023-07-02T04:41:24;6.00;;;3.73;;
1204;SDS011;592;48.764;9.174;2023-07-02T04:43:50;12.00;;;3.70;;
1204;SDS011;592;48.764;9.174;2023-07-02T04:46:18;6.10;;;3.43;;
1204;SDS011;592;48.764;9.174;2023-07-02T04:48:45;6.37;;;3.73;;
1204;SDS011;592;48.764;9.174;2023-07-02T04:51:12;7.77;;;3.93;;
1204;SDS011;592;48.764;9.174;2023-07-02T04:53:39;9.13;;;3.23;;
1204;SDS011;592;48.764;9.174;2023-07-02T04:56:05;7.70;;;3.40;;
1204;SDS011;592;48.764;9.174;2023-07-02T04:58:32;7.80;;;3.93;;
1204;SDS011;592;48.764;9.174;2023-07-02T05:00:59;7.27;;;3.57;;
1204;SDS011;592;48.764;9.174;2023-07-02T05:03:27;6.07;;;3.40;;
1204;SDS011;592;48.764;9.174;2023-07-02T05:05:54;5.73;;;3.37;;
1204;SDS011;592;48.764;9.174;2023-07-02T05:08:20;8.30;;;4.00;;
1204;SDS011;592;48.764;9.174;2023-07-02T05:10:47;6.37;;;2.90;;
1204;SDS011;592;48.764;9.174;2023-07-02T05:13:14;8.13;;;3.93;;
1204;SDS011;592;48.764;9.174;2023-07-02T05:15:40;6.20;;;3.77;;
1204;SDS011;592;48.764;9.174;2023-07-02T05:18:07;7.80;;;3.10;;
1204;SDS011;592;48.764;9.174;2023-07-02T05:20:35;6.03;;;3.60;;
1204;SDS011;592;48.764;9.174;2023-07-02T05:23:02;12.03;;;3.13;;
1204;SDS011;592;48.764;9.174;2023-07-02T05:25:29;5.67;;;3.60;;
1204;SDS011;592;48.764;9.174;2023-07-02T05:27:57;5.03;;;2.93;;
1204;SDS011;592;48.764;9.174;2023-07-02T05:30:24;7.10;;;3.77;;
1204;SDS011;592;48.764;9.174;2023-07-02T05:32:51;7.50;;;3.50;;
1204;SDS011;592;48.764;9.174;2023-07-02T05:35:17;5.20;;;3.00;;
1204;SDS011;592;48.764;9.174;2023-07-02T05:37:45;6.87;;;3.47;;
1204;SDS011;592;48.764;9.174;2023-07-02T05:40:12;9.00;;;3.87;;
1204;SDS011;592;48.764;9.174;2023-07-02T05:42:39;5.90;;;3.73;;
1204;SDS011;592;48.764;9.174;2023-07-02T05:45:08;6.27;;;3.77;;
1204;SDS011;592;48.764;9.174;2023-07-02T05:47:35;7.57;;;3.77;;
1204;SDS011;592;48.764;9.174;2023-07-02T05:50:01;6.70;;;3.70;;
1204;SDS011;592;48.764;9.174;2023-07-02T05:52:28;6.57;;;3.70;;
1204;SDS011;592;48.764;9.174;2023-07-02T05:54:57;8.70;;;4.50;;
1204;SDS011;592;48.764;9.174;2023-07-02T05:57:23;8.53;;;4.80;;
1204;SDS011;592;48.764;9.174;2023-07-02T05:59:50;7.80;;;4.20;;
1204;SDS011;592;48.764;9.174;2023-07-02T06:02:17;8.30;;;4.50;;
1204;SDS011;592;48.764;9.174;2023-07-02T06:04:43;9.50;;;4.60;;
1204;SDS011;592;48.764;9.174;2023-07-02T06:07:10;7.07;;;3.87;;
1204;SDS011;592;48.764;9.174;2023-07-02T06:09:37;7.10;;;4.43;;
1204;SDS011;592;48.764;9.174;2023-07-02T06:12:05;10.53;;;5.00;;
1204;SDS011;592;48.764;9.174;2023-07-02T06:14:32;7.77;;;4.30;;
1204;SDS011;592;48.764;9.174;2023-07-02T06:16:59;8.80;;;4.40;;
1204;SDS011;592;48.764;9.174;2023-07-02T06:19:26;13.80;;;6.03;;
1204;SDS011;592;48.764;9.174;2023-07-02T06:21:52;10.20;;;5.30;;
1204;SDS011;592;48.764;9.174;2023-07-02T06:24:19;11.13;;;6.10;;
1204;SDS011;592;48.764;9.174;2023-07-02T06:26:46;12.30;;;6.73;;
1204;SDS011;592;48.764;9.174;2023-07-02T06:29:14;10.60;;;6.10;;
1204;SDS011;592;48.764;9.174;2023-07-02T06:31:40;12.10;;;6.77;;
1204;SDS011;592;48.764;9.174;2023-07-02T06:34:07;13.20;;;7.57;;
1204;SDS011;592;48.764;9.174;2023-07-02T06:36:34;13.43;;;6.57;;
1204;SDS011;592;48.764;9.174;2023-07-02T06:39:01;10.73;;;6.53;;
1204;SDS011;592;48.764;9.174;2023-07-02T06:41:28;16.83;;;7.67;;
1204;SDS011;592;48.764;9.174;2023-07-02T06:43:54;13.03;;;6.97;;
1204;SDS011;592;48.764;9.174;2023-07-02T06:46:22;15.03;;;7.13;;
1204;SDS011;592;48.764;9.174;2023-07-02T06:48:49;13.30;;;7.13;;
1204;SDS011;592;48.764;9.174;2023-07-02T06:51:16;15.90;;;7.30;;
1204;SDS011;592;48.764;9.174;2023-07-02T06:53:44;19.50;;;7.73;;
1204;SDS011;592;48.764;9.174;2023-07-02T06:56:11;11.43;;;6.53;;
1204;SDS011;592;48.764;9.174;2023-07-02T06:58:38;9.40;;;6.07;;
1204;SDS011;592;48.764;9.174;2023-07-02T07:01:06;14.40;;;6.50;;
1204;SDS011;592;48.764;9.174;2023-07-02T07:03:34;12.87;;;7.47;;
1204;SDS011;592;48.764;9.174;2023-07-02T07:06:01;13.83;;;7.67;;
1204;SDS011;592;48.764;9.174;2023-07-02T07:08:28;11.23;;;7.03;;
1204;SDS011;592;48.764;9.174;2023-07-02T07:10:55;12.80;;;7.10;;
1204;SDS011;592;48.764;9.174;2023-07-02T07:13:21;13.10;;;7.90;;
1204;SDS011;592;48.764;9.174;2023-07-02T07:15:48;14.30;;;7.97;;
1204;SDS011;592;48.764;9.174;2023-07-02T07:18:15;13.73;;;7.80;;
1204;SDS011;592;48.764;9.174;2023-07-02T07:20:44;14.77;;;7.87;;
1204;SDS011;592;48.764;9.174;2023-07-02T07:23:11;16.70;;;8.20;;
1204;SDS011;592;48.764;9.174;2023-07-02T07:25:38;15.07;;;8.17;;
1204;SDS011;592;48.764;9.174;2023-07-02T07:28:04;12.60;;;7.50;;
1204;SDS011;592;48.764;9.174;2023-07-02T07:30:31;19.63;;;8.87;;
1204;SDS011;592;48.764;9.174;2023-07-02T07:32:58;16.47;;;9.40;;
1204;SDS011;592;48.764;9.174;2023-07-02T07:35:24;15.60;;;9.77;;
1204;SDS011;592;48.764;9.174;2023-07-02T07:37:52;16.50;;;10.37;;
1204;SDS011;592;48.764;9.174;2023-07-02T07:40:19;20.60;;;10.50;;
1204;SDS011;592;48.764;9.174;2023-07-02T07:42:46;17.20;;;9.03;;
1204;SDS011;592;48.764;9.174;2023-07-02T07:45:12;17.87;;;9.97;;
1204;SDS011;592;48.764;9.174;2023-07-02T07:47:39;18.43;;;10.50;;
1204;SDS011;592;48.764;9.174;2023-07-02T07:50:06;18.43;;;9.07;;
1204;SDS011;592;48.764;9.174;2023-07-02T07:52:36;18.20;;;9.23;;
1204;SDS011;592;48.764;9.174;2023-07-02T07:55:05;16.77;;;9.90;;
1204;SDS011;592;48.764;9.174;2023-07-02T07:57:33;17.77;;;8.80;;
1204;SDS011;592;48.764;9.174;2023-07-02T08:00:00;16.97;;;10.17;;
1204;SDS011;592;48.764;9.174;2023-07-02T08:02:29;16.33;;;9.70;;
1204;SDS011;592;48.764;9.174;2023-07-02T08:04:55;22.93;;;10.30;;
1204;SDS011;592;48.764;9.174;2023-07-02T08:07:22;20.43;;;11.13;;
1204;SDS011;592;48.764;9.174;2023-07-02T08:09:49;18.53;;;9.97;;
1204;SDS011;592;48.764;9.174;2023-07-02T08:12:17;17.27;;;10.07;;
1204;SDS011;592;48.764;9.174;2023-07-02T08:14:43;20.13;;;10.60;;
1204;SDS011;592;48.764;9.174;2023-07-02T08:17:10;18.17;;;9.40;;
1204;SDS011;592;48.764;9.174;2023-07-02T08:19:37;16.63;;;10.43;;
1204;SDS011;592;48.764;9.174;2023-07-02T08:22:04;16.53;;;10.13;;
1204;SDS011;592;48.764;9.174;2023-07-02T08:24:31;17.73;;;9.93;;
1204;SDS011;592;48.764;9.174;2023-07-02T08:26:58;17.57;;;10.47;;
1204;SDS011;592;48.764;9.174;2023-07-02T08:29:28;20.67;;;10.43;;
1204;SDS011;592;48.764;9.174;2023-07-02T08:31:55;24.20;;;11.53;;
1204;SDS011;592;48.764;9.174;2023-07-02T08:34:22;19.43;;;9.90;;
1204;SDS011;592;48.764;9.174;2023-07-02T08:36:49;20.93;;;9.70;;
1204;SDS011;592;48.764;9.174;2023-07-02T08:39:16;18.50;;;10.37;;
1204;SDS011;592;48.764;9.174;2023-07-02T08:41:43;19.00;;;10.13;;
1204;SDS011;592;48.764;9.174;2023-07-02T08:44:11;20.27;;;10.80;;
1204;SDS011;592;48.764;9.174;2023-07-02T08:46:39;17.93;;;11.40;;
1204;SDS011;592;48.764;9.174;2023-07-02T08:49:07;18.20;;;10.27;;
1204;SDS011;592;48.764;9.174;2023-07-02T08:51:34;17.40;;;10.10;;
1204;SDS011;592;48.764;9.174;2023-07-02T08:54:01;20.17;;;11.30;;
1204;SDS011;592;48.764;9.174;2023-07-02T08:56:28;17.67;;;10.17;;
1204;SDS011;592;48.764;9.174;2023-07-02T08:58:55;18.10;;;9.40;;
1204;SDS011;592;48.764;9.174;2023-07-02T09:01:22;18.77;;;11.03;;
1204;SDS011;592;48.764;9.174;2023-07-02T09:03:50;15.43;;;8.90;;
1204;SDS011;592;48.764;9.174;2023-07-02T09:06:18;14.77;;;8.93;;
1204;SDS011;592;48.764;9.174;2023-07-02T09:08:45;13.70;;;8.63;;
1204;SDS011;592;48.764;9.174;2023-07-02T09:11:12;16.63;;;10.10;;
1204;SDS011;592;48.764;9.174;2023-07-02T09:13:46;17.00;;;8.97;;
1204;SDS011;592;48.764;9.174;2023-07-02T09:16:24;18.33;;;9.17;;
1204;SDS011;592;48.764;9.174;2023-07-02T09:18:59;17.80;;;9.90;;
1204;SDS011;592;48.764;9.174;2023-07-02T09:21:28;17.23;;;9.60;;
1204;SDS011;592;48.764;9.174;2023-07-02T09:24:11;15.37;;;8.97;;
1204;SDS011;592;48.764;9.174;2023-07-02T09:26:41;14.97;;;9.30;;
1204;SDS011;592;48.764;9.174;2023-07-02T09:29:09;14.60;;;8.90;;
1204;SDS011;592;48.764;9.174;2023-07-02T09:31:42;17.20;;;9.63;;
1204;SDS011;592;48.764;9.174;2023-07-02T09:34:11;17.20;;;8.83;;
1204;SDS011;592;48.764;9.174;2023-07-02T09:36:38;16.43;;;10.00;;
1204;SDS011;592;48.764;9.174;2023-07-02T09:39:06;15.90;;;9.50;;
1204;SDS011;592;48.764;9.174;2023-07-02T09:41:33;14.10;;;8.53;;
1204;SDS011;592;48.764;9.174;2023-07-02T09:44:01;15.87;;;8.67;;
1204;SDS011;592;48.764;9.174;2023-07-02T09:46:28;18.33;;;9.33;;
1204;SDS011;592;48.764;9.174;2023-07-02T09:48:56;13.50;;;8.37;;
1204;SDS011;592;48.764;9.174;2023-07-02T09:51:26;17.50;;;10.30;;
1204;SDS011;592;48.764;9.174;2023-07-02T09:53:54;16.13;;;10.00;;
1204;SDS011;592;48.764;9.174;2023-07-02T09:56:21;13.30;;;8.90;;
1204;SDS011;592;48.764;9.174;2023-07-02T09:58:47;16.87;;;9.77;;
1204;SDS011;592;48.764;9.174;2023-07-02T10:01:14;15.77;;;9.60;;
1204;SDS011;592;48.764;9.174;2023-07-02T10:03:41;18.03;;;10.00;;
1204;SDS011;592;48.764;9.174;2023-07-02T10:06:07;22.47;;;10.07;;
1204;SDS011;592;48.764;9.174;2023-07-02T10:08:36;14.80;;;9.90;;
1204;SDS011;592;48.764;9.174;2023-07-02T10:11:06;15.20;;;9.60;;
1204;SDS011;592;48.764;9.174;2023-07-02T10:13:34;17.20;;;9.97;;
1204;SDS011;592;48.764;9.174;2023-07-02T10:16:01;14.53;;;9.33;;
1204;SDS011;592;48.764;9.174;2023-07-02T10:18:28;22.00;;;8.90;;
1204;SDS011;592;48.764;9.174;2023-07-02T10:20:54;19.27;;;10.47;;
1204;SDS011;592;48.764;9.174;2023-07-02T10:23:22;16.53;;;9.23;;
1204;SDS011;592;48.764;9.174;2023-07-02T10:26:10;17.33;;;10.07;;
1204;SDS011;592;48.764;9.174;2023-07-02T10:28:40;19.27;;;10.83;;
1204;SDS011;592;48.764;9.174;2023-07-02T10:31:17;18.40;;;11.67;;
1204;SDS011;592;48.764;9.174;2023-07-02T10:33:44;14.77;;;10.27;;
1204;SDS011;592;48.764;9.174;2023-07-02T10:36:17;19.63;;;11.37;;
1204;SDS011;592;48.764;9.174;2023-07-02T10:38:44;19.00;;;11.33;;
1204;SDS011;592;48.764;9.174;2023-07-02T10:41:22;17.10;;;11.10;;
1204;SDS011;592;48.764;9.174;2023-07-02T10:43:49;20.73;;;11.90;;
1204;SDS011;592;48.764;9.174;2023-07-02T10:46:18;16.90;;;10.90;;
1204;SDS011;592;48.764;9.174;2023-07-02T10:48:50;18.33;;;11.30;;
1204;SDS011;592;48.764;9.174;2023-07-02T10:51:17;16.07;;;10.87;;
1204;SDS011;592;48.764;9.174;2023-07-02T10:53:44;16.07;;;10.57;;
1204;SDS011;592;48.764;9.174;2023-07-02T10:56:16;16.67;;;10.40;;
1204;SDS011;592;48.764;9.174;2023-07-02T10:58:43;20.37;;;10.67;;
1204;SDS011;592;48.764;9.174;2023-07-02T11:01:11;17.23;;;11.07;;
1204;SDS011;592;48.764;9.174;2023-07-02T11:03:38;16.50;;;10.37;;
1204;SDS011;592;48.764;9.174;2023-07-02T11:06:04;15.40;;;10.30;;
1204;SDS011;592;48.764;9.174;2023-07-02T11:08:34;19.50;;;11.77;;
1204;SDS011;592;48.764;9.174;2023-07-02T11:11:07;21.07;;;11.17;;
1204;SDS011;592;48.764;9.174;2023-07-02T11:13:43;19.40;;;11.13;;
1204;SDS011;592;48.764;9.174;2023-07-02T11:16:16;17.33;;;10.30;;
1204;SDS011;592;48.764;9.174;2023-07-02T11:18:44;16.17;;;10.53;;
1204;SDS011;592;48.764;9.174;2023-07-02T11:21:11;18.30;;;11.40;;
1204;SDS011;592;48.764;9.174;2023-07-02T11:23:38;21.73;;;11.60;;
1204;SDS011;592;48.764;9.174;2023-07-02T11:26:05;19.10;;;10.87;;
1204;SDS011;592;48.764;9.174;2023-07-02T11:28:31;16.47;;;10.23;;
1204;SDS011;592;48.764;9.174;2023-07-02T11:31:01;22.30;;;11.00;;
1204;SDS011;592;48.764;9.174;2023-07-02T11:33:32;16.70;;;10.40;;
1204;SDS011;592;48.764;9.174;2023-07-02T11:36:00;17.47;;;10.63;;
1204;SDS011;592;48.764;9.174;2023-07-02T11:38:26;20.10;;;11.37;;
1204;SDS011;592;48.764;9.174;2023-07-02T11:40:53;13.30;;;9.57;;
1204;SDS011;592;48.764;9.174;2023-07-02T11:43:20;14.57;;;8.93;;
1204;SDS011;592;48.764;9.174;2023-07-02T11:45:46;20.40;;;9.63;;
1204;SDS011;592;48.764;9.174;2023-07-02T11:48:15;23.23;;;10.40;;
1204;SDS011;592;48.764;9.174;2023-07-02T11:50:41;22.07;;;10.17;;
1204;SDS011;592;48.764;9.174;2023-07-02T11:53:09;18.10;;;10.07;;
1204;SDS011;592;48.764;9.174;2023-07-02T11:55:36;21.93;;;10.13;;
1204;SDS011;592;48.764;9.174;2023-07-02T11:58:02;14.60;;;10.43;;
1204;SDS011;592;48.764;9.174;2023-07-02T12:00:29;13.83;;;9.30;;
1204;SDS011;592;48.764;9.174;2023-07-02T12:02:56;18.90;;;10.77;;
1204;SDS011;592;48.764;9.174;2023-07-02T12:05:24;19.70;;;11.00;;
1204;SDS011;592;48.764;9.174;2023-07-02T12:07:50;16.37;;;9.37;;
1204;SDS011;592;48.764;9.174;2023-07-02T12:10:17;21.70;;;10.37;;
1204;SDS011;592;48.764;9.174;2023-07-02T12:12:44;17.70;;;10.63;;
1204;SDS011;592;48.764;9.174;2023-07-02T12:15:11;18.00;;;10.30;;
1204;SDS011;592;48.764;9.174;2023-07-02T12:17:37;16.07;;;10.17;;
1204;SDS011;592;48.764;9.174;2023-07-02T12:20:04;19.90;;;11.77;;
1204;SDS011;592;48.764;9.174;2023-07-02T12:22:33;22.40;;;11.00;;
1204;SDS011;592;48.764;9.174;2023-07-02T12:25:00;20.03;;;11.57;;
1204;SDS011;592;48.764;9.174;2023-07-02T12:27:26;16.43;;;10.53;;
1204;SDS011;592;48.764;9.174;2023-07-02T12:29:53;18.37;;;11.23;;
1204;SDS011;592;48.764;9.174;2023-07-02T12:32:20;22.20;;;11.40;;
1204;SDS011;592;48.764;9.174;2023-07-02T12:34:46;21.37;;;12.10;;
1204;SDS011;592;48.764;9.174;2023-07-02T12:37:13;19.17;;;9.80;;
1204;SDS011;592;48.764;9.174;2023-07-02T12:39:44;17.00;;;9.20;;
1204;SDS011;592;48.764;9.174;2023-07-02T12:42:10;19.70;;;11.60;;
1204;SDS011;592;48.764;9.174;2023-07-02T12:44:37;19.20;;;11.60;;
1204;SDS011;592;48.764;9.174;2023-07-02T12:47:04;19.93;;;10.90;;
1204;SDS011;592;48.764;9.174;2023-07-02T12:49:31;18.07;;;11.53;;
1204;SDS011;592;48.764;9.174;2023-07-02T12:51:58;16.60;;;10.87;;
1204;SDS011;592;48.764;9.174;2023-07-02T12:54:24;18.20;;;9.80;;
1204;SDS011;592;48.764;9.174;2023-07-02T12:56:52;18.00;;;10.27;;
1204;SDS011;592;48.764;9.174;2023-07-02T12:59:19;20.20;;;10.10;;
1204;SDS011;592;48.764;9.174;2023-07-02T13:01:46;20.17;;;10.83;;
1204;SDS011;592;48.764;9.174;2023-07-02T13:04:13;19.00;;;11.30;;
1204;SDS011;592;48.764;9.174;2023-07-02T13:06:40;14.33;;;10.30;;
1204;SDS011;592;48.764;9.174;2023-07-02T13:09:07;16.90;;;10.67;;
1204;SDS011;592;48.764;9.174;2023-07-02T13:11:34;18.00;;;11.17;;
1204;SDS011;592;48.764;9.174;2023-07-02T13:14:02;20.20;;;10.37;;
1204;SDS011;592;48.764;9.174;2023-07-02T13:16:29;19.53;;;10.80;;
1204;SDS011;592;48.764;9.174;2023-07-02T13:18:56;20.67;;;10.30;;
1204;SDS011;592;48.764;9.174;2023-07-02T13:21:22;15.70;;;10.57;;
1204;SDS011;592;48.764;9.174;2023-07-02T13:23:49;24.60;;;11.23;;
1204;SDS011;592;48.764;9.174;2023-07-02T13:26:16;19.20;;;11.10;;
1204;SDS011;592;48.764;9.174;2023-07-02T13:28:42;17.57;;;9.87;;
1204;SDS011;592;48.764;9.174;2023-07-02T13:31:13;18.93;;;10.80;;
1204;SDS011;592;48.764;9.174;2023-07-02T13:33:40;14.83;;;9.57;;
1204;SDS011;592;48.764;9.174;2023-07-02T13:36:07;15.50;;;9.67;;
1204;SDS011;592;48.764;9.174;2023-07-02T13:38:34;19.30;;;10.77;;
1204;SDS011;592;48.764;9.174;2023-07-02T13:41:01;19.93;;;9.67;;
1204;SDS011;592;48.764;9.174;2023-07-02T13:43:27;17.37;;;10.20;;
1204;SDS011;592;48.764;9.174;2023-07-02T13:45:54;17.20;;;10.70;;
1204;SDS011;592;48.764;9.174;2023-07-02T13:48:22;17.70;;;10.83;;
1204;SDS011;592;48.764;9.174;2023-07-02T13:50:49;17.53;;;9.70;;
1204;SDS011;592;48.764;9.174;2023-07-02T13:53:16;18.83;;;10.87;;
1204;SDS011;592;48.764;9.174;2023-07-02T13:55:42;17.47;;;9.93;;
1204;SDS011;592;48.764;9.174;2023-07-02T13:58:09;16.47;;;9.53;;
1204;SDS011;592;48.764;9.174;2023-07-02T14:00:37;18.60;;;11.20;;
1204;SDS011;592;48.764;9.174;2023-07-02T14:03:04;18.30;;;10.70;;
1204;SDS011;592;48.764;9.174;2023-07-02T14:05:31;17.83;;;10.30;;
1204;SDS011;592;48.764;9.174;2023-07-02T14:07:58;16.50;;;10.27;;
1204;SDS011;592;48.764;9.174;2023-07-02T14:10:25;20.70;;;12.00;;
1204;SDS011;592;48.764;9.174;2023-07-02T14:12:53;17.23;;;10.43;;
1204;SDS011;592;48.764;9.174;2023-07-02T14:15:20;18.40;;;11.20;;
1204;SDS011;592;48.764;9.174;2023-07-02T14:17:49;18.50;;;10.17;;
1204;SDS011;592;48.764;9.174;2023-07-02T14:20:16;17.47;;;11.07;;
1204;SDS011;592;48.764;9.174;2023-07-02T14:22:43;18.90;;;11.63;;
1204;SDS011;592;48.764;9.174;2023-07-02T14:25:10;21.70;;;10.97;;
1204;SDS011;592;48.764;9.174;2023-07-02T14:27:36;17.77;;;10.90;;
1204;SDS011;592;48.764;9.174;2023-07-02T14:30:03;18.40;;;10.77;;
1204;SDS011;592;48.764;9.174;2023-07-02T14:32:32;18.17;;;10.10;;
1204;SDS011;592;48.764;9.174;2023-07-02T14:35:01;20.10;;;10.23;;
1204;SDS011;592;48.764;9.174;2023-07-02T14:37:28;17.10;;;11.47;;
1204;SDS011;592;48.764;9.174;2023-07-02T14:39:55;20.23;;;11.83;;
1204;SDS011;592;48.764;9.174;2023-07-02T14:42:21;19.17;;;10.73;;
1204;SDS011;592;48.764;9.174;2023-07-02T14:44:48;19.20;;;10.80;;
1204;SDS011;592;48.764;9.174;2023-07-02T14:47:15;18.03;;;11.07;;
1204;SDS011;592;48.764;9.174;2023-07-02T14:49:41;18.93;;;11.27;;
1204;SDS011;592;48.764;9.174;2023-07-02T14:52:09;15.40;;;10.80;;
1204;SDS011;592;48.764;9.174;2023-07-02T14:54:37;15.10;;;10.17;;
1204;SDS011;592;48.764;9.174;2023-07-02T14:57:04;16.60;;;10.47;;
1204;SDS011;592;48.764;9.174;2023-07-02T14:59:31;18.83;;;12.30;;
1204;SDS011;592;48.764;9.174;2023-07-02T15:01:57;17.60;;;11.87;;
1204;SDS011;592;48.764;9.174;2023-07-02T15:04:24;20.17;;;12.03;;
1204;SDS011;592;48.764;9.174;2023-07-02T15:06:51;17.43;;;10.97;;
1204;SDS011;592;48.764;9.174;2023-07-02T15:09:19;20.20;;;10.63;;
1204;SDS011;592;48.764;9.174;2023-07-02T15:11:46;17.67;;;11.93;;
1204;SDS011;592;48.764;9.174;2023-07-02T15:14:12;16.80;;;11.17;;
1204;SDS011;592;48.764;9.174;2023-07-02T15:16:39;17.83;;;11.50;;